Sagar Sampada — VWXS — position and weather

sailwx.info

Track history (hours):
 
Tides and Currents Weather Stations Pressure Air Temp Water Temp Dewpoint Dewpoint Depression Visibility Wind Speed Wind Dir Waves Ship Positions

Oceanographic research ship Sagar Sampada (India)

Detailed information on ship capabilities available from University of Delaware's Ocean Information Center.

Last reported at 2017-Apr-22 18:09 UTC. Time now 2017-Apr-25 00:55 UTC.
Position N 11°12' E 065°00'.

Type: Ship (hazmat cat A). MMSI: 419323000.

Wind from 250 at 4 knots

Barometer 1011.0 mb
Air temperature 28.5 ° C

Date/timePositionNaut miles runAvg speedWind from/ knotsBaromVisibWave heightAir tempDewpointWater temp
2017-Apr-22 18:09N 11°12' E 065°00'24 8.0 250 / 41011.0 28.5
2017-Apr-22 15:09N 10°48' E 065°00'18 6.0 280 / 61009.8 29.0
2017-Apr-22 12:09N 10°30' E 065°00'19 6.3 280 / 81008.4 29.7
2017-Apr-22 09:09N 10°12' E 065°06'13 4.5 260 / 81009.7 29.3
2017-Apr-22 06:09N 10°00' E 065°00'0 0.0 280 / 61012.7 29.6
2017-Apr-22 02:39N 10°00' E 065°00'120 5.1 290 / 21011.6 28.7
2017-Apr-21 03:09N 08°00' E 065°00'6 2.0 050 / 21011.3 29.6
2017-Apr-21 00:09N 07°54' E 065°00'24 8.0 360 / 21009.5 28.7
2017-Apr-20 21:09N 07°30' E 065°00'25 8.2 080 / 21009.8 28.9
2017-Apr-20 18:09N 07°06' E 064°54'18 6.0 020 / 61011.5 29.5
2017-Apr-20 15:09N 06°48' E 064°54'30 8.6 360 / 61010.3 29.5
2017-Apr-20 11:39N 06°18' E 064°54'19 6.3 340 / 81007.9 30.1
2017-Apr-20 08:39N 06°00' E 064°48'60 2.9 330 / 101009.1 29.9
2017-Apr-19 11:39N 06°48' E 065°24'12 4.8 340 / 101008.7 30.2
2017-Apr-19 09:09N 07°00' E 065°24'13 4.4 340 / 101009.4 30.1
2017-Apr-19 06:09N 07°06' E 065°36'27 8.9 340 / 81011.8 30.1
2017-Apr-19 03:09N 07°18' E 066°00'25 8.2 340 / 81011.3 29.4
2017-Apr-19 00:09N 07°24' E 066°24'19 6.3 330 / 41009.4 28.9
2017-Apr-18 21:09N 07°30' E 066°42'25 8.2 350 / 101009.8 29.1
2017-Apr-18 18:09N 07°36' E 067°06'25 8.2 330 / 121011.4 29.3
2017-Apr-18 15:09N 07°42' E 067°30'19 6.3 330 / 191009.9 29.4
2017-Apr-18 12:09N 07°48' E 067°48'24 7.9 330 / 141008.7 29.8
2017-Apr-18 09:09N 07°48' E 068°12'19 6.3 330 / 101009.2 29.8
2017-Apr-18 06:09N 07°54' E 068°30'25 8.2 320 / 61011.8 30.0
2017-Apr-18 03:09N 08°00' E 068°54'25 8.2 340 / 61011.5 29.5
2017-Apr-18 00:09N 08°06' E 069°18'19 6.3 340 / 61009.3 28.9
2017-Apr-17 21:09N 08°12' E 069°36'30 8.7 340 / 61009.4 29.0
2017-Apr-17 17:39N 08°18' E 070°06'19 7.5 330 / 101010.9 29.5
2017-Apr-17 15:09N 08°24' E 070°24'24 8.2 330 / 121009.6 29.8
2017-Apr-17 12:09N 08°30' E 070°48'24 8.2 340 / 161007.5 29.9
2017-Apr-17 09:09N 08°36' E 071°12'19 6.3 340 / 161008.6 30.0
2017-Apr-17 06:09N 08°42' E 071°30'24 8.2 310 / 101011.1 30.2
2017-Apr-17 03:09N 08°48' E 071°54'86 7.2 280 / 101010.7 30.0
2017-Apr-16 15:09N 09°12' E 073°18'24 8.1 300 / 121008.9 29.8
2017-Apr-16 12:09N 09°18' E 073°42'19 6.2 300 / 141006.6 30.3
2017-Apr-16 09:09N 09°24' E 074°00'24 8.1 300 / 121007.4 30.7
2017-Apr-16 06:09N 09°30' E 074°24'24 8.1 290 / 101009.4 30.5
2017-Apr-16 03:09N 09°36' E 074°48'19 6.2 280 / 101009.2 30.2
2017-Apr-16 00:09N 09°42' E 075°06'24 8.1 300 / 81007.1 29.7
2017-Apr-15 21:09N 09°48' E 075°30'24 8.1 290 / 101006.4 29.8
2017-Apr-15 18:09N 09°54' E 075°54'24 8.1 280 / 81008.0 30.1
2017-Apr-15 15:09N 10°00' E 076°18'0 0.0 300 / 81007.0 30.5
2017-Apr-15 11:39N 10°00' E 076°18'0 0.0 260 / 21004.9 32.4
2017-Apr-15 09:09N 10°00' E 076°18'0 0.0 260 / 21005.6 33.6
2017-Apr-15 06:09N 10°00' E 076°18'0 0.0 260 / 21008.3 33.7
2017-Apr-15 03:09N 10°00' E 076°18'0 0.0 060 / 21009.2 29.6
2017-Apr-15 00:09N 10°00' E 076°18'0 0.0 090 / 41007.4 27.8
2017-Apr-14 21:09N 10°00' E 076°18'0 0.0 060 / 41007.4 28.1
2017-Apr-14 18:09N 10°00' E 076°18'0 0.0 020 / 21009.4 29.2
2017-Apr-14 15:09N 10°00' E 076°18'0 0.0 240 1008.9 29.8
2017-Apr-13 18:09N 10°00' E 076°18'0 0.0 120 / 21010.1 26.8
2017-Apr-13 15:09N 10°00' E 076°18'0 0.0 080 / 61008.9 25.5
2017-Apr-13 12:09N 10°00' E 076°18'0 0.0 240 / 21007.2 32.0
2017-Apr-13 09:09N 10°00' E 076°18'0 0.0 270 / 21006.8 33.2
2017-Apr-13 06:09N 10°00' E 076°18'0 0.0 250 / 21009.9 33.9
2017-Apr-13 03:09N 10°00' E 076°18'0 0.0 350 / 61010.4 30.2
2017-Apr-12 18:09N 10°00' E 076°18'   280 1009.6 30.4
Track history (hours):
 
Tides and Currents Weather Stations Pressure Air Temp Water Temp Dewpoint Dewpoint Depression Visibility Wind Speed Wind Dir Waves Ship Positions

Oceanographic research ship Sagar Sampada (India)

Detailed information on ship capabilities available from University of Delaware's Ocean Information Center.

Last reported at 2017-Apr-22 18:09 UTC. Time now 2017-Apr-25 00:55 UTC.
Position N 11°12' E 065°00'.

Type: Ship (hazmat cat A). MMSI: 419323000.

Wind from 250 at 4 knots

Barometer 1011.0 mb
Air temperature 28.5 ° C

Date/timePositionNaut miles runAvg speedWind from/ knotsBaromVisibWave heightAir tempDewpointWater temp
2017-Apr-22 18:09N 11°12' E 065°00'24 8.0 250 / 41011.0 28.5
2017-Apr-22 15:09N 10°48' E 065°00'18 6.0 280 / 61009.8 29.0
2017-Apr-22 12:09N 10°30' E 065°00'19 6.3 280 / 81008.4 29.7
2017-Apr-22 09:09N 10°12' E 065°06'13 4.5 260 / 81009.7 29.3
2017-Apr-22 06:09N 10°00' E 065°00'0 0.0 280 / 61012.7 29.6
2017-Apr-22 02:39N 10°00' E 065°00'120 5.1 290 / 21011.6 28.7
2017-Apr-21 03:09N 08°00' E 065°00'6 2.0 050 / 21011.3 29.6
2017-Apr-21 00:09N 07°54' E 065°00'24 8.0 360 / 21009.5 28.7
2017-Apr-20 21:09N 07°30' E 065°00'25 8.2 080 / 21009.8 28.9
2017-Apr-20 18:09N 07°06' E 064°54'18 6.0 020 / 61011.5 29.5
2017-Apr-20 15:09N 06°48' E 064°54'30 8.6 360 / 61010.3 29.5
2017-Apr-20 11:39N 06°18' E 064°54'19 6.3 340 / 81007.9 30.1
2017-Apr-20 08:39N 06°00' E 064°48'60 2.9 330 / 101009.1 29.9
2017-Apr-19 11:39N 06°48' E 065°24'12 4.8 340 / 101008.7 30.2
2017-Apr-19 09:09N 07°00' E 065°24'13 4.4 340 / 101009.4 30.1
2017-Apr-19 06:09N 07°06' E 065°36'27 8.9 340 / 81011.8 30.1
2017-Apr-19 03:09N 07°18' E 066°00'25 8.2 340 / 81011.3 29.4
2017-Apr-19 00:09N 07°24' E 066°24'19 6.3 330 / 41009.4 28.9
2017-Apr-18 21:09N 07°30' E 066°42'25 8.2 350 / 101009.8 29.1
2017-Apr-18 18:09N 07°36' E 067°06'25 8.2 330 / 121011.4 29.3
2017-Apr-18 15:09N 07°42' E 067°30'19 6.3 330 / 191009.9 29.4
2017-Apr-18 12:09N 07°48' E 067°48'24 7.9 330 / 141008.7 29.8
2017-Apr-18 09:09N 07°48' E 068°12'19 6.3 330 / 101009.2 29.8
2017-Apr-18 06:09N 07°54' E 068°30'25 8.2 320 / 61011.8 30.0
2017-Apr-18 03:09N 08°00' E 068°54'25 8.2 340 / 61011.5 29.5
2017-Apr-18 00:09N 08°06' E 069°18'19 6.3 340 / 61009.3 28.9
2017-Apr-17 21:09N 08°12' E 069°36'30 8.7 340 / 61009.4 29.0
2017-Apr-17 17:39N 08°18' E 070°06'19 7.5 330 / 101010.9 29.5
2017-Apr-17 15:09N 08°24' E 070°24'24 8.2 330 / 121009.6 29.8
2017-Apr-17 12:09N 08°30' E 070°48'24 8.2 340 / 161007.5 29.9
2017-Apr-17 09:09N 08°36' E 071°12'19 6.3 340 / 161008.6 30.0
2017-Apr-17 06:09N 08°42' E 071°30'24 8.2 310 / 101011.1 30.2
2017-Apr-17 03:09N 08°48' E 071°54'86 7.2 280 / 101010.7 30.0
2017-Apr-16 15:09N 09°12' E 073°18'24 8.1 300 / 121008.9 29.8
2017-Apr-16 12:09N 09°18' E 073°42'19 6.2 300 / 141006.6 30.3
2017-Apr-16 09:09N 09°24' E 074°00'24 8.1 300 / 121007.4 30.7
2017-Apr-16 06:09N 09°30' E 074°24'24 8.1 290 / 101009.4 30.5
2017-Apr-16 03:09N 09°36' E 074°48'19 6.2 280 / 101009.2 30.2
2017-Apr-16 00:09N 09°42' E 075°06'24 8.1 300 / 81007.1 29.7
2017-Apr-15 21:09N 09°48' E 075°30'24 8.1 290 / 101006.4 29.8
2017-Apr-15 18:09N 09°54' E 075°54'24 8.1 280 / 81008.0 30.1
2017-Apr-15 15:09N 10°00' E 076°18'0 0.0 300 / 81007.0 30.5
2017-Apr-15 11:39N 10°00' E 076°18'0 0.0 260 / 21004.9 32.4
2017-Apr-15 09:09N 10°00' E 076°18'0 0.0 260 / 21005.6 33.6
2017-Apr-15 06:09N 10°00' E 076°18'0 0.0 260 / 21008.3 33.7
2017-Apr-15 03:09N 10°00' E 076°18'0 0.0 060 / 21009.2 29.6
2017-Apr-15 00:09N 10°00' E 076°18'0 0.0 090 / 41007.4 27.8
2017-Apr-14 21:09N 10°00' E 076°18'0 0.0 060 / 41007.4 28.1
2017-Apr-14 18:09N 10°00' E 076°18'0 0.0 020 / 21009.4 29.2
2017-Apr-14 15:09N 10°00' E 076°18'0 0.0 240 1008.9 29.8
2017-Apr-13 18:09N 10°00' E 076°18'0 0.0 120 / 21010.1 26.8
2017-Apr-13 15:09N 10°00' E 076°18'0 0.0 080 / 61008.9 25.5
2017-Apr-13 12:09N 10°00' E 076°18'0 0.0 240 / 21007.2 32.0
2017-Apr-13 09:09N 10°00' E 076°18'0 0.0 270 / 21006.8 33.2
2017-Apr-13 06:09N 10°00' E 076°18'0 0.0 250 / 21009.9 33.9
2017-Apr-13 03:09N 10°00' E 076°18'0 0.0 350 / 61010.4 30.2
2017-Apr-12 18:09N 10°00' E 076°18'   280 1009.6 30.4

Dump ship's entire track history